createdAt,value
2018-06-20T00:00:00.494Z,2.20
2018-06-20T00:02:28.753Z,2.20
2018-06-20T00:04:57.040Z,2.23
2018-06-20T00:07:25.338Z,2.07
2018-06-20T00:09:53.548Z,2.07
2018-06-20T00:23:49.303Z,2.20
2018-06-20T00:26:17.589Z,2.20
2018-06-20T00:28:45.878Z,2.13
2018-06-20T00:31:14.164Z,2.20
2018-06-20T00:33:42.428Z,2.30
2018-06-20T00:36:10.701Z,2.10
2018-06-20T00:38:39.009Z,2.20
2018-06-20T00:41:07.512Z,2.20
2018-06-20T00:43:35.990Z,2.20
2018-06-20T00:46:04.706Z,2.10
2018-06-20T00:48:33.691Z,2.10
2018-06-20T00:51:02.008Z,2.40
2018-06-20T00:53:30.283Z,2.03
2018-06-20T00:56:10.019Z,2.17
2018-06-20T00:58:38.297Z,2.30
2018-06-20T01:01:06.554Z,2.27
2018-06-20T01:03:34.808Z,2.27
2018-06-20T01:06:02.837Z,2.20
2018-06-20T01:08:31.111Z,1.80
2018-06-20T01:10:59.385Z,2.43
2018-06-20T01:13:28.154Z,2.20
2018-06-20T01:15:56.444Z,2.20
2018-06-20T01:18:24.746Z,2.10
2018-06-20T01:20:53.277Z,2.20
2018-06-20T01:23:21.538Z,2.07
2018-06-20T01:25:50.778Z,1.97
2018-06-20T01:28:20.976Z,2.30
2018-06-20T01:30:50.873Z,2.10
2018-06-20T01:33:19.434Z,1.90
2018-06-20T01:35:47.829Z,1.73
2018-06-20T01:38:16.182Z,1.80
2018-06-20T01:40:44.493Z,2.10
2018-06-20T01:43:12.785Z,2.20
2018-06-20T01:45:41.083Z,1.90
2018-06-20T01:48:09.710Z,2.20
2018-06-20T01:50:38.020Z,2.20
2018-06-20T01:53:06.827Z,1.90
2018-06-20T01:55:35.151Z,1.90
2018-06-20T01:58:03.395Z,1.73
2018-06-20T02:00:31.711Z,2.30
2018-06-20T02:02:59.986Z,2.20
2018-06-20T02:05:28.284Z,2.50
2018-06-20T02:07:56.562Z,1.80
2018-06-20T02:10:24.853Z,1.90
2018-06-20T02:12:53.161Z,2.20
2018-06-20T02:15:21.405Z,2.10
2018-06-20T02:17:49.673Z,1.77
2018-06-20T02:20:17.926Z,1.90
2018-06-20T02:22:46.233Z,2.17
2018-06-20T02:25:14.545Z,1.90
2018-06-20T02:27:43.111Z,2.17
2018-06-20T02:30:11.422Z,2.10
2018-06-20T02:32:39.722Z,2.17
2018-06-20T02:35:08.169Z,2.10
2018-06-20T02:37:36.590Z,2.00
2018-06-20T02:40:04.889Z,1.80
2018-06-20T02:42:33.168Z,1.90
2018-06-20T02:45:01.563Z,2.00
2018-06-20T02:47:35.735Z,1.80
2018-06-20T02:50:04.396Z,2.00
2018-06-20T02:52:32.727Z,2.10
2018-06-20T02:55:00.993Z,2.03
2018-06-20T02:57:29.308Z,1.80
2018-06-20T02:59:57.625Z,2.10
2018-06-20T03:02:25.914Z,1.80
2018-06-20T03:04:54.149Z,2.00
2018-06-20T03:07:22.486Z,1.80
2018-06-20T03:09:50.757Z,1.80
2018-06-20T03:12:19.091Z,2.20
2018-06-20T03:14:48.661Z,2.03
2018-06-20T03:17:16.973Z,2.33
2018-06-20T03:19:45.256Z,1.87
2018-06-20T03:22:13.529Z,1.97
2018-06-20T03:24:41.796Z,1.70
2018-06-20T03:27:10.073Z,2.10
2018-06-20T03:29:38.367Z,2.00
2018-06-20T03:32:06.676Z,1.80
2018-06-20T03:34:34.970Z,2.10
2018-06-20T03:37:03.274Z,2.10
2018-06-20T03:39:31.578Z,2.10
2018-06-20T03:41:59.849Z,2.03
2018-06-20T03:44:28.158Z,1.90
2018-06-20T03:46:56.434Z,1.80
2018-06-20T03:49:24.755Z,1.77
2018-06-20T03:51:53.026Z,2.37
2018-06-20T03:54:22.271Z,2.00
2018-06-20T03:56:50.561Z,1.83
2018-06-20T03:59:18.838Z,1.90
2018-06-20T04:01:47.101Z,1.70
2018-06-20T04:04:15.378Z,2.00
2018-06-20T04:06:44.159Z,2.27
2018-06-20T04:09:14.055Z,2.00
2018-06-20T04:11:43.057Z,2.00
2018-06-20T04:14:11.742Z,1.73
2018-06-20T04:16:40.043Z,1.80
2018-06-20T04:19:08.295Z,1.83
2018-06-20T04:21:36.611Z,1.80
2018-06-20T04:24:04.969Z,2.20
2018-06-20T04:26:33.261Z,1.80
2018-06-20T04:29:02.160Z,2.10
2018-06-20T04:31:30.689Z,2.00
2018-06-20T04:33:58.954Z,2.27
2018-06-20T04:36:27.281Z,2.20
2018-06-20T04:38:55.569Z,2.10
2018-06-20T04:41:23.851Z,1.87
2018-06-20T04:43:52.121Z,2.23
2018-06-20T04:46:20.448Z,2.17
2018-06-20T04:48:48.728Z,2.07
2018-06-20T04:51:17.042Z,2.13
2018-06-20T04:53:45.280Z,2.07
2018-06-20T04:56:13.551Z,2.10
2018-06-20T04:58:41.853Z,1.90
2018-06-20T05:01:10.386Z,1.90
2018-06-20T05:03:38.701Z,1.87
2018-06-20T05:06:07.005Z,2.00
2018-06-20T05:08:35.247Z,1.90
2018-06-20T05:11:03.583Z,2.10
2018-06-20T05:13:33.018Z,2.00
2018-06-20T05:16:03.126Z,2.03
2018-06-20T05:18:31.503Z,2.07
2018-06-20T05:20:59.940Z,1.90
2018-06-20T05:23:29.377Z,2.13
2018-06-20T05:25:57.731Z,1.90
2018-06-20T05:28:26.015Z,2.00
2018-06-20T05:30:55.334Z,2.00
2018-06-20T05:33:23.390Z,2.03
2018-06-20T05:35:51.654Z,3.23
2018-06-20T05:38:19.948Z,2.07
2018-06-20T05:40:48.532Z,2.37
2018-06-20T05:43:16.779Z,2.03
2018-06-20T05:45:45.083Z,2.40
2018-06-20T05:48:13.343Z,4.03
2018-06-20T05:50:41.626Z,3.30
2018-06-20T05:53:09.911Z,2.97
2018-06-20T05:55:38.205Z,2.70
2018-06-20T05:58:07.068Z,2.60
2018-06-20T06:00:35.349Z,3.07
2018-06-20T06:03:03.629Z,2.77
2018-06-20T06:05:31.905Z,2.60
2018-06-20T06:08:08.145Z,2.67
2018-06-20T06:10:36.419Z,2.23
2018-06-20T06:13:04.767Z,3.10
2018-06-20T06:15:33.094Z,2.40
2018-06-20T06:18:01.377Z,2.60
2018-06-20T06:20:29.707Z,3.03
2018-06-20T06:22:57.975Z,2.57
2018-06-20T06:25:26.286Z,2.53
2018-06-20T06:27:54.587Z,2.43
2018-06-20T06:30:22.853Z,4.50
2018-06-20T06:32:51.219Z,4.23
2018-06-20T06:35:19.494Z,2.90
2018-06-20T06:37:47.801Z,2.23
2018-06-20T06:40:16.048Z,2.27
2018-06-20T06:42:44.361Z,2.87
2018-06-20T06:45:12.606Z,2.77
2018-06-20T06:47:40.890Z,2.70
2018-06-20T06:50:09.339Z,3.10
2018-06-20T06:52:37.497Z,2.60
2018-06-20T06:55:05.768Z,2.47
2018-06-20T06:57:34.046Z,2.47
2018-06-20T07:00:02.329Z,2.23
2018-06-20T07:02:30.748Z,3.57
2018-06-20T07:04:59.239Z,2.70
2018-06-20T07:07:27.543Z,2.70
2018-06-20T07:09:55.861Z,2.27
2018-06-20T07:12:24.121Z,2.40
2018-06-20T07:14:52.431Z,4.10
2018-06-20T07:17:20.782Z,3.53
2018-06-20T07:19:49.133Z,3.40
2018-06-20T07:22:17.372Z,2.90
2018-06-20T07:24:45.648Z,3.20
2018-06-20T07:27:13.938Z,3.00
2018-06-20T07:29:43.119Z,2.30
2018-06-20T07:32:11.538Z,2.70
2018-06-20T07:34:39.838Z,3.80
2018-06-20T07:37:09.193Z,3.30
2018-06-20T07:39:37.525Z,2.50
2018-06-20T07:42:05.859Z,2.93
2018-06-20T07:44:34.149Z,2.30
2018-06-20T07:47:02.702Z,2.83
2018-06-20T07:49:31.465Z,2.70
2018-06-20T07:51:59.778Z,2.33
2018-06-20T07:54:28.130Z,2.83
2018-06-20T07:56:56.423Z,2.97
2018-06-20T07:59:24.681Z,2.57
2018-06-20T08:02:09.873Z,2.47
2018-06-20T08:05:42.326Z,2.60
2018-06-20T08:08:15.854Z,2.73
2018-06-20T08:10:49.556Z,2.80
2018-06-20T08:13:23.113Z,2.90
2018-06-20T08:15:56.840Z,3.27
2018-06-20T08:18:30.593Z,2.57
2018-06-20T08:20:58.861Z,2.47
2018-06-20T08:23:28.370Z,2.80
2018-06-20T08:26:03.917Z,3.33
2018-06-20T08:28:32.851Z,2.40
2018-06-20T08:31:02.107Z,3.00
2018-06-20T08:33:30.993Z,3.23
2018-06-20T08:35:59.738Z,2.60
2018-06-20T08:38:28.030Z,2.70
2018-06-20T08:40:56.316Z,3.20
2018-06-20T08:43:24.615Z,3.27
2018-06-20T08:45:52.859Z,2.90
2018-06-20T08:48:21.146Z,2.40
2018-06-20T08:50:49.437Z,2.03
2018-06-20T08:53:17.720Z,2.30
2018-06-20T08:55:45.989Z,2.50
2018-06-20T08:58:14.371Z,2.70
2018-06-20T09:00:48.042Z,2.60
2018-06-20T09:03:16.319Z,2.20
2018-06-20T09:05:50.049Z,2.90
2018-06-20T09:08:23.637Z,2.73
2018-06-20T09:10:57.274Z,2.17
2018-06-20T09:13:30.978Z,2.77
2018-06-20T09:16:04.719Z,2.50
2018-06-20T09:18:38.361Z,2.50
2018-06-20T09:21:06.615Z,2.80
2018-06-20T09:23:34.940Z,2.40
2018-06-20T09:26:03.186Z,2.73
2018-06-20T09:28:31.489Z,2.47
2018-06-20T09:30:59.765Z,2.50
2018-06-20T09:33:28.110Z,2.70
2018-06-20T09:35:57.266Z,2.50
2018-06-20T09:38:25.278Z,2.70
2018-06-20T09:40:53.546Z,2.43
2018-06-20T09:43:21.841Z,2.40
2018-06-20T09:45:50.077Z,2.83
2018-06-20T09:48:18.359Z,2.33
2018-06-20T09:50:51.976Z,2.33
2018-06-20T09:53:20.260Z,2.20
2018-06-20T09:55:48.526Z,2.70
2018-06-20T09:58:16.838Z,2.40
2018-06-20T10:00:50.491Z,2.17
2018-06-20T10:03:24.213Z,2.10
2018-06-20T10:05:57.897Z,2.30
2018-06-20T10:08:31.715Z,2.60
2018-06-20T10:11:05.461Z,2.30
2018-06-20T10:13:40.882Z,2.43
2018-06-20T10:16:09.244Z,2.20
2018-06-20T10:18:37.494Z,2.20
2018-06-20T10:21:05.898Z,2.47
2018-06-20T10:23:34.082Z,2.40
2018-06-20T10:26:02.362Z,2.20
2018-06-20T10:28:30.677Z,2.57
2018-06-20T10:30:58.909Z,2.27
2018-06-20T10:33:27.214Z,2.03
2018-06-20T10:35:55.518Z,1.70
2018-06-20T10:38:23.569Z,2.10
2018-06-20T10:40:51.890Z,2.50
2018-06-20T10:43:20.157Z,2.40
2018-06-20T10:45:53.893Z,2.30
2018-06-20T10:48:22.194Z,2.20
2018-06-20T10:50:50.437Z,2.30
2018-06-20T10:53:18.769Z,2.53
2018-06-20T10:55:47.727Z,2.37
2018-06-20T10:58:21.329Z,2.30
2018-06-20T11:00:54.982Z,2.10
2018-06-20T11:03:28.609Z,2.20
2018-06-20T11:06:02.245Z,2.03
2018-06-20T11:08:35.874Z,2.40
2018-06-20T11:11:09.443Z,2.30
2018-06-20T11:13:37.733Z,2.10
2018-06-20T11:16:06.034Z,2.20
2018-06-20T11:18:36.357Z,2.60
2018-06-20T11:21:04.893Z,1.77
2018-06-20T11:23:33.191Z,2.10
2018-06-20T11:26:01.189Z,2.20
2018-06-20T11:28:29.469Z,2.00
2018-06-20T11:30:57.741Z,2.07
2018-06-20T11:33:26.040Z,1.97
2018-06-20T11:35:54.339Z,1.80
2018-06-20T11:38:22.634Z,2.13
2018-06-20T11:40:50.901Z,2.07
2018-06-20T11:43:19.217Z,2.40
2018-06-20T11:45:52.953Z,2.37
2018-06-20T11:48:21.234Z,2.10
2018-06-20T11:50:49.560Z,1.90
2018-06-20T11:53:17.785Z,2.60
2018-06-20T11:55:47.105Z,1.90
2018-06-20T11:58:20.669Z,2.13
2018-06-20T12:00:54.445Z,2.20
2018-06-20T12:03:28.128Z,2.40
2018-06-20T12:06:01.873Z,2.07
2018-06-20T12:08:35.575Z,2.00
2018-06-20T12:11:09.312Z,2.10
2018-06-20T12:13:42.969Z,2.30
2018-06-20T12:16:16.542Z,2.20
2018-06-20T12:18:50.245Z,1.90
2018-06-20T12:21:23.961Z,2.00
2018-06-20T12:23:57.477Z,2.00
2018-06-20T12:26:31.377Z,2.23
2018-06-20T12:29:05.986Z,2.27
2018-06-20T12:31:39.782Z,1.90
2018-06-20T12:34:13.527Z,2.10
2018-06-20T12:36:47.181Z,2.00
2018-06-20T12:39:14.709Z,2.00
2018-06-20T12:41:48.429Z,2.20
2018-06-20T12:45:25.044Z,2.33
2018-06-20T12:47:55.757Z,2.10
2018-06-20T12:50:25.086Z,2.23
2018-06-20T12:52:53.685Z,2.40
2018-06-20T12:55:22.541Z,2.00
2018-06-20T12:57:50.812Z,2.40
2018-06-20T13:00:19.111Z,2.10
2018-06-20T13:02:47.415Z,2.40
2018-06-20T13:05:16.172Z,2.10
2018-06-20T13:07:44.546Z,2.03
2018-06-20T13:10:14.491Z,2.10
2018-06-20T13:12:42.802Z,2.17
2018-06-20T13:15:11.101Z,2.20
2018-06-20T13:17:39.393Z,2.20
2018-06-20T13:20:07.807Z,2.53
2018-06-20T13:22:36.293Z,2.10
2018-06-20T13:25:04.870Z,2.40
2018-06-20T13:27:38.470Z,2.27
2018-06-20T13:30:09.321Z,2.40
2018-06-20T13:33:41.489Z,2.27
2018-06-20T13:36:15.171Z,2.60
2018-06-20T13:38:48.773Z,2.00
2018-06-20T13:41:22.329Z,2.10
2018-06-20T13:43:55.977Z,2.20
2018-06-20T13:46:29.678Z,2.50
2018-06-20T13:48:58.046Z,2.30
2018-06-20T13:51:26.445Z,2.10
2018-06-20T13:53:54.773Z,2.50
2018-06-20T13:56:23.377Z,2.40
2018-06-20T13:58:51.648Z,2.27
2018-06-20T14:01:19.957Z,2.73
2018-06-20T14:03:47.979Z,2.20
2018-06-20T14:06:16.445Z,2.20
2018-06-20T14:08:45.105Z,1.90
2018-06-20T14:11:13.401Z,2.07
2018-06-20T14:13:41.769Z,2.30
2018-06-20T14:16:10.057Z,2.30
2018-06-20T14:18:38.464Z,2.27
2018-06-20T14:21:12.179Z,2.03
2018-06-20T14:23:40.663Z,2.87
2018-06-20T14:26:10.770Z,2.33
2018-06-20T14:28:39.061Z,2.50
2018-06-20T14:31:13.811Z,2.30
2018-06-20T14:33:47.560Z,2.77
2018-06-20T14:36:21.288Z,2.67
2018-06-20T14:38:55.164Z,2.67
2018-06-20T14:41:24.869Z,3.07
2018-06-20T14:43:58.576Z,2.70
2018-06-20T14:46:28.883Z,2.60
2018-06-20T14:48:57.222Z,2.57
2018-06-20T14:51:25.586Z,2.13
2018-06-20T14:53:54.202Z,3.10
2018-06-20T14:56:22.944Z,3.17
2018-06-20T14:58:51.286Z,2.30
2018-06-20T15:01:19.624Z,2.77
2018-06-20T15:03:49.201Z,3.00
2018-06-20T15:06:17.635Z,2.40
2018-06-20T15:08:45.924Z,3.20
2018-06-20T15:11:14.414Z,2.70
2018-06-20T15:13:42.794Z,2.73
2018-06-20T15:16:16.747Z,3.00
2018-06-20T15:18:45.181Z,3.67
2018-06-20T15:21:13.630Z,2.30
2018-06-20T15:23:41.940Z,2.63
2018-06-20T15:26:15.706Z,2.60
2018-06-20T15:28:50.324Z,3.43
2018-06-20T15:31:24.031Z,2.70
2018-06-20T15:33:57.977Z,3.10
2018-06-20T15:36:31.609Z,2.90
2018-06-20T15:39:00.030Z,3.50
2018-06-20T15:41:28.329Z,3.47
2018-06-20T15:43:56.722Z,3.00
2018-06-20T15:46:25.204Z,4.43
2018-06-20T15:48:53.493Z,4.30
2018-06-20T15:51:21.767Z,4.63
2018-06-20T15:53:50.054Z,2.70
2018-06-20T15:56:18.745Z,4.33
2018-06-20T15:58:47.014Z,3.00
2018-06-20T16:01:15.291Z,3.73
2018-06-20T16:03:43.638Z,3.80
2018-06-20T16:06:11.880Z,3.03
2018-06-20T16:08:45.560Z,3.73
2018-06-20T16:11:13.816Z,3.47
2018-06-20T16:13:42.069Z,3.20
2018-06-20T16:16:10.981Z,3.50
2018-06-20T16:18:43.491Z,3.13
2018-06-20T16:21:17.226Z,3.50
2018-06-20T16:23:51.042Z,3.17
2018-06-20T16:26:24.753Z,3.43
2018-06-20T16:28:58.194Z,3.33
2018-06-20T16:31:26.477Z,3.47
2018-06-20T16:33:54.784Z,3.27
2018-06-20T16:36:23.030Z,3.53
2018-06-20T16:38:51.301Z,3.60
2018-06-20T16:41:19.636Z,3.40
2018-06-20T16:43:48.125Z,3.00
2018-06-20T16:46:16.375Z,3.03
2018-06-20T16:48:44.740Z,3.00
2018-06-20T16:51:13.086Z,3.27
2018-06-20T16:53:41.440Z,3.20
2018-06-20T16:56:10.675Z,3.20
2018-06-20T16:58:38.986Z,2.70
2018-06-20T17:01:12.778Z,3.50
2018-06-20T17:03:41.053Z,2.77
2018-06-20T17:06:09.319Z,3.53
2018-06-20T17:08:37.597Z,2.70
2018-06-20T17:11:05.863Z,2.50
2018-06-20T17:13:39.503Z,2.83
2018-06-20T17:16:13.042Z,3.90
2018-06-20T17:18:46.785Z,3.13
2018-06-20T17:21:20.540Z,3.10
2018-06-20T17:23:54.226Z,2.57
2018-06-20T17:26:22.523Z,2.80
2018-06-20T17:28:50.907Z,2.43
2018-06-20T17:31:19.229Z,2.80
2018-06-20T17:33:47.486Z,2.27
2018-06-20T17:36:15.763Z,3.07
2018-06-20T17:38:44.042Z,2.23
2018-06-20T17:41:12.321Z,2.60
2018-06-20T17:43:40.604Z,2.50
2018-06-20T17:46:08.881Z,2.97
2018-06-20T17:48:37.305Z,2.87
2018-06-20T17:51:05.654Z,2.60
2018-06-20T17:53:33.973Z,2.40
2018-06-20T17:56:04.350Z,2.00
2018-06-20T17:58:33.221Z,2.97
2018-06-20T18:01:06.988Z,2.50
2018-06-20T18:03:35.265Z,2.07
2018-06-20T18:06:09.010Z,2.07
2018-06-20T18:08:42.758Z,2.87
2018-06-20T18:11:12.627Z,2.73
2018-06-20T18:13:46.263Z,2.40
2018-06-20T18:16:20.050Z,2.60
2018-06-20T18:18:48.385Z,2.20
2018-06-20T18:21:16.719Z,2.20
2018-06-20T18:23:45.266Z,2.23
2018-06-20T18:26:13.641Z,2.87
2018-06-20T18:28:41.890Z,3.80
2018-06-20T18:31:10.233Z,3.77
2018-06-20T18:33:38.553Z,3.83
2018-06-20T18:36:06.984Z,4.47
2018-06-20T18:38:35.423Z,4.10
2018-06-20T18:41:04.905Z,4.27
2018-06-20T18:43:33.290Z,4.13
2018-06-20T18:46:02.138Z,4.50
2018-06-20T18:48:30.491Z,4.40
2018-06-20T18:50:58.883Z,4.00
2018-06-20T18:53:27.165Z,4.40
2018-06-20T18:55:55.581Z,4.30
2018-06-20T18:58:29.350Z,4.00
2018-06-20T19:01:03.055Z,4.40
2018-06-20T19:03:36.708Z,4.50
2018-06-20T19:06:10.741Z,4.57
2018-06-20T19:08:44.476Z,4.20
2018-06-20T19:11:13.250Z,3.80
2018-06-20T19:13:41.783Z,4.33
2018-06-20T19:16:10.038Z,4.10
2018-06-20T19:18:38.442Z,3.90
2018-06-20T19:21:06.806Z,4.17
2018-06-20T19:23:35.129Z,4.00
2018-06-20T19:26:03.418Z,4.13
2018-06-20T19:28:31.712Z,4.20
2018-06-20T19:31:00.007Z,4.17
2018-06-20T19:33:28.318Z,3.73
2018-06-20T19:35:56.669Z,3.60
2018-06-20T19:38:24.933Z,3.40
2018-06-20T19:40:53.240Z,3.63
2018-06-20T19:43:21.563Z,3.60
2018-06-20T19:45:49.818Z,3.60
2018-06-20T19:48:18.085Z,3.50
2018-06-20T19:50:46.328Z,3.70
2018-06-20T19:53:14.678Z,3.60
2018-06-20T19:55:42.724Z,3.37
2018-06-20T19:58:11.033Z,3.47
2018-06-20T20:00:39.711Z,3.20
2018-06-20T20:03:08.130Z,3.57
2018-06-20T20:05:36.564Z,3.03
2018-06-20T20:08:04.863Z,3.47
2018-06-20T20:10:33.141Z,3.07
2018-06-20T20:13:01.600Z,3.20
2018-06-20T20:15:29.813Z,3.00
2018-06-20T20:17:58.123Z,3.40
2018-06-20T20:20:26.449Z,3.00
2018-06-20T20:22:54.721Z,3.10
2018-06-20T20:25:23.007Z,3.10
2018-06-20T20:27:51.303Z,2.73
2018-06-20T20:30:19.557Z,2.60
2018-06-20T20:32:47.798Z,2.90
2018-06-20T20:35:16.114Z,2.97
2018-06-20T20:37:44.361Z,2.73
2018-06-20T20:40:12.617Z,2.87
2018-06-20T20:42:41.497Z,2.77
2018-06-20T20:45:09.830Z,3.10
2018-06-20T20:47:38.077Z,3.00
2018-06-20T20:50:06.870Z,3.20
2018-06-20T20:52:35.255Z,3.03
2018-06-20T20:55:03.727Z,2.23
2018-06-20T20:57:31.997Z,2.73
2018-06-20T21:00:00.295Z,2.63
2018-06-20T21:02:28.588Z,2.63
2018-06-20T21:04:56.870Z,2.80
2018-06-20T21:07:25.228Z,2.97
2018-06-20T21:09:53.550Z,2.70
2018-06-20T21:12:21.824Z,3.00
2018-06-20T21:14:50.189Z,2.47
2018-06-20T21:17:18.489Z,2.53
2018-06-20T21:19:46.769Z,2.50
2018-06-20T21:22:15.161Z,2.57
2018-06-20T21:24:43.409Z,2.53
2018-06-20T21:27:11.723Z,2.60
2018-06-20T21:29:40.016Z,2.03
2018-06-20T21:32:08.792Z,2.33
2018-06-20T21:34:37.094Z,2.20
2018-06-20T21:37:05.462Z,2.47
2018-06-20T21:39:33.764Z,2.37
2018-06-20T21:42:02.063Z,2.50
2018-06-20T21:44:30.334Z,2.40
2018-06-20T21:46:58.585Z,2.17
2018-06-20T21:49:26.846Z,2.83
2018-06-20T21:51:55.150Z,2.40
2018-06-20T21:54:23.459Z,2.50
2018-06-20T21:56:51.757Z,2.63
2018-06-20T21:59:20.052Z,2.40
2018-06-20T22:01:48.321Z,2.20
2018-06-20T22:04:16.605Z,2.60
2018-06-20T22:06:44.880Z,2.23
2018-06-20T22:09:13.162Z,2.27
2018-06-20T22:11:41.436Z,2.40
2018-06-20T22:14:10.069Z,2.50
2018-06-20T22:16:38.853Z,2.27
2018-06-20T22:19:07.129Z,2.23
2018-06-20T22:21:35.414Z,2.30
2018-06-20T22:24:03.682Z,2.33
2018-06-20T22:26:31.965Z,2.50
2018-06-20T22:29:00.241Z,2.30
2018-06-20T22:31:28.502Z,2.93
2018-06-20T22:33:56.781Z,2.40
2018-06-20T22:36:25.090Z,2.40
2018-06-20T22:38:53.096Z,2.40
2018-06-20T22:41:21.388Z,2.23
2018-06-20T22:43:49.665Z,2.53
2018-06-20T22:46:17.957Z,2.30
2018-06-20T22:48:46.278Z,2.57
2018-06-20T22:51:14.565Z,2.33
2018-06-20T22:53:42.862Z,2.33
2018-06-20T22:56:11.101Z,2.07
2018-06-20T22:58:39.405Z,2.40
2018-06-20T23:01:07.685Z,2.37
2018-06-20T23:03:35.961Z,2.40
2018-06-20T23:06:04.274Z,2.30
2018-06-20T23:08:32.553Z,2.50
2018-06-20T23:11:00.833Z,2.50
2018-06-20T23:13:29.120Z,2.57
2018-06-20T23:15:57.405Z,2.37
2018-06-20T23:18:25.697Z,2.40
2018-06-20T23:20:53.970Z,2.40
2018-06-20T23:23:22.253Z,2.43
2018-06-20T23:25:50.548Z,2.63
2018-06-20T23:28:18.800Z,2.47
2018-06-20T23:30:47.086Z,2.20
2018-06-20T23:33:15.341Z,2.27
2018-06-20T23:35:43.613Z,2.20
2018-06-20T23:38:11.892Z,2.40
2018-06-20T23:40:40.157Z,2.50
2018-06-20T23:43:08.449Z,2.23
2018-06-20T23:45:36.731Z,2.63
2018-06-20T23:48:04.981Z,2.80
2018-06-20T23:50:33.261Z,2.43
2018-06-20T23:53:01.549Z,2.40
2018-06-20T23:55:29.810Z,2.40
2018-06-20T23:57:58.071Z,2.43
